Main page
METAR-TAF:

METAR-TAF

Airports :

Ramon Airport

Eilat, Israel

latitude: 29-43-25N, longitude: 35-00-41E, elevation: 88 m

Current weather observation

The report was made 48 minutes ago, at 16:50 UTC
Wind 11 kt from the Northwest
Temperature 36°C
Humidity 17%
Pressure 1008 hPa
Visibility 10 km or more
no clouds below 1500 m and no cumulonimbus

METAR: LLER 221650Z 32011KT CAVOK 36/07 Q1008

Time: 20:38 (17:38 UTC)

Forecast

The report was made 37 minutes ago, at 17:01 UTC
Forecast valid from 22 at 18 UTC to 23 at 18 UTC
Wind 10 kt from the North/Northwest
Visibility 10 km or more
no clouds below 1500 m and no cumulonimbus
Becoming
from 23 at 06 UTC to 23 at 08 UTC
Wind 15 kt from the North/Northeast
Probability 40% :
Temporary
from 23 at 10 UTC to 23 at 17 UTC
Wind 20 kt from the North

TAF: LLER 221701Z 2218/2318 33010KT CAVOK BECMG 2306/2308 02015KT PROB40 TEMPO 2310/2317 01020KT TX38/2313Z TN24/2303Z

Weather observations and forecasts of more than 4000 airports (METAR and TAF reports).

The available stations are represented by yellow and red dots on the map.

Hover mouse over dot to see the name of the station.

Then click to see weather observations and forecasts.

To change the map : click on the green buttons with a black cross to zoom in, on the green button with a dash to zoom out, or on the green arrows for adjacent maps.


METAR-TAF: